This is the latest recevied weather packets stored in our database for station/object K9COE-11. If no packets are shown the sender has not sent any weather packets the latest 10 day(s).
| Time | Temp. | Humidity | Pressure | Rain* | Wind** | Luminosity | Snow |
|---|---|---|---|---|---|---|---|
| 1777941618 | 16.11° C | 60% | - | 0 mm | - | - | - |
| 1777941488 | 16.11° C | 60% | - | 0 mm | - | - | - |
| 1777940083 | 17.22° C | 56% | - | 0 mm | - | - | - |
| 1777939958 | 17.22° C | 56% | - | 0 mm | - | - | - |
| 1777939696 | 17.22° C | 56% | - | 0 mm | - | - | - |
| 1777939567 | 17.22° C | 56% | - | 0 mm | - | - | - |
| 1777939182 | 17.22° C | 57% | - | 0 mm | - | - | - |
| 1777938930 | 17.22° C | 56% | - | 0 mm | - | - | - |
| 1777938801 | 17.22° C | 56% | - | 0 mm | - | - | - |
| 1777938672 | 17.22° C | 56% | - | 0 mm | - | - | - |
| 1777938543 | 17.22° C | 57% | - | 0 mm | - | - | - |
| 1777938293 | 17.22° C | 56% | - | 0 mm | - | - | - |
| 1777937906 | 17.78° C | 55% | - | 0 mm | - | - | - |
| 1777937776 | 17.78° C | 56% | - | 0 mm | - | - | - |
| 1777937257 | 17.22° C | 55% | - | 0 mm | - | - | - |
| 1777937128 | 17.22° C | 55% | - | 0 mm | - | - | - |
| 1777936998 | 17.22° C | 55% | - | 0 mm | - | - | - |
| 1777936494 | 17.78° C | 55% | - | 0 mm | - | - | - |
| 1777935484 | 18.33° C | 53% | - | 0 mm | - | - | - |
| 1777935226 | 18.33° C | 53% | - | 0 mm | - | - | - |
| 1777934588 | 17.78° C | 54% | - | 0 mm | - | - | - |
| 1777934460 | 18.33° C | 54% | - | 0 mm | - | - | - |
| 1777934073 | 17.78° C | 53% | - | 0 mm | - | - | - |
| 1777931909 | 18.33° C | 50% | - | 0 mm | - | - | - |
| 1777931531 | 18.33° C | 49% | - | 0 mm | - | - | - |
* Rain latest 24 hours (hover to see other rain measurements)
** Current wind speed in m/s (hover to see current wind gust speed)